createdAt,value
2022-10-25T00:01:17.932Z,19.10
2022-10-25T00:03:46.413Z,19.10
2022-10-25T00:06:15.315Z,19.10
2022-10-25T00:08:43.704Z,19.00
2022-10-25T00:11:14.469Z,19.10
2022-10-25T00:13:44.341Z,19.00
2022-10-25T00:16:14.498Z,19.00
2022-10-25T00:18:43.040Z,19.00
2022-10-25T00:21:11.489Z,19.00
2022-10-25T00:23:40.013Z,19.00
2022-10-25T00:26:09.903Z,19.00
2022-10-25T00:28:39.298Z,19.10
2022-10-25T00:31:10.038Z,19.00
2022-10-25T00:33:38.758Z,19.00
2022-10-25T00:36:07.598Z,19.10
2022-10-25T00:38:35.997Z,19.00
2022-10-25T00:41:04.535Z,19.10
2022-10-25T00:43:33.985Z,19.10
2022-10-25T00:46:02.986Z,19.10
2022-10-25T00:48:33.340Z,19.00
2022-10-25T00:51:02.120Z,19.00
2022-10-25T00:53:34.133Z,19.00
2022-10-25T00:56:04.768Z,19.00
2022-10-25T00:58:35.493Z,19.10
2022-10-25T01:01:05.567Z,19.10
2022-10-25T01:03:35.726Z,19.10
2022-10-25T01:06:05.208Z,19.20
2022-10-25T01:08:33.642Z,19.20
2022-10-25T01:11:02.016Z,19.20
2022-10-25T01:13:30.693Z,19.20
2022-10-25T01:16:02.222Z,19.20
2022-10-25T01:18:35.320Z,19.20
2022-10-25T01:21:23.711Z,19.20
2022-10-25T01:24:12.741Z,19.20
2022-10-25T01:26:55.193Z,19.10
2022-10-25T01:29:30.642Z,19.10
2022-10-25T01:32:02.456Z,19.10
2022-10-25T01:34:33.911Z,19.10
2022-10-25T01:37:04.945Z,19.20
2022-10-25T01:39:34.770Z,19.10
2022-10-25T01:42:07.242Z,19.00
2022-10-25T01:44:40.382Z,19.00
2022-10-25T01:47:12.875Z,18.90
2022-10-25T01:49:44.314Z,18.80
2022-10-25T01:52:12.757Z,18.80
2022-10-25T01:54:41.093Z,18.80
2022-10-25T01:57:30.267Z,18.90
2022-10-25T02:00:07.250Z,18.90
2022-10-25T02:02:40.569Z,18.90
2022-10-25T02:05:11.958Z,18.90
2022-10-25T02:07:42.885Z,18.90
2022-10-25T02:10:13.355Z,19.00
2022-10-25T02:12:46.932Z,19.00
2022-10-25T02:15:18.253Z,19.10
2022-10-25T02:17:50.741Z,19.10
2022-10-25T02:20:20.343Z,19.00
2022-10-25T02:22:49.922Z,18.90
2022-10-25T02:25:19.376Z,18.70
2022-10-25T02:27:48.101Z,18.60
2022-10-25T02:30:16.768Z,18.60
2022-10-25T02:32:45.190Z,18.70
2022-10-25T02:35:16.248Z,18.70
2022-10-25T02:37:44.874Z,18.70
2022-10-25T02:40:13.652Z,18.70
2022-10-25T02:42:42.025Z,18.70
2022-10-25T02:45:11.076Z,18.60
2022-10-25T02:47:39.516Z,18.70
2022-10-25T02:50:08.117Z,18.70
2022-10-25T02:52:37.968Z,18.70
2022-10-25T02:55:06.833Z,18.70
2022-10-25T02:57:35.809Z,18.70
2022-10-25T03:00:04.853Z,18.70
2022-10-25T03:02:33.392Z,18.60
2022-10-25T03:05:01.823Z,18.60
2022-10-25T03:07:30.245Z,18.60
2022-10-25T03:10:00.030Z,18.70
2022-10-25T03:12:28.431Z,18.70
2022-10-25T03:14:56.803Z,18.80
2022-10-25T03:17:25.133Z,18.80
2022-10-25T03:19:53.502Z,18.80
2022-10-25T03:22:21.933Z,18.90
2022-10-25T03:24:50.312Z,18.90
2022-10-25T03:27:20.138Z,18.90
2022-10-25T03:29:48.652Z,19.00
2022-10-25T03:32:16.994Z,19.00
2022-10-25T03:34:45.362Z,19.00
2022-10-25T03:37:13.729Z,19.10
2022-10-25T03:39:42.059Z,19.10
2022-10-25T03:42:10.481Z,19.00
2022-10-25T03:44:40.295Z,19.00
2022-10-25T03:47:08.733Z,19.00
2022-10-25T03:49:37.144Z,19.00
2022-10-25T03:52:07.439Z,19.00
2022-10-25T03:54:35.892Z,18.90
2022-10-25T03:57:04.452Z,18.90
2022-10-25T03:59:32.855Z,18.90
2022-10-25T04:02:03.077Z,18.90
2022-10-25T04:04:31.531Z,18.90
2022-10-25T04:06:59.946Z,18.90
2022-10-25T04:09:28.534Z,18.90
2022-10-25T04:11:56.942Z,18.90
2022-10-25T04:14:25.336Z,18.90
2022-10-25T04:16:53.736Z,18.90
2022-10-25T04:19:23.450Z,18.90
2022-10-25T04:21:51.814Z,18.90
2022-10-25T04:24:20.366Z,18.80
2022-10-25T04:26:48.728Z,18.90
2022-10-25T04:29:17.505Z,18.80
2022-10-25T04:31:46.036Z,18.80
2022-10-25T04:34:14.418Z,18.80
2022-10-25T04:36:44.180Z,18.80
2022-10-25T04:39:14.182Z,18.80
2022-10-25T04:41:42.507Z,18.90
2022-10-25T04:44:11.117Z,18.80
2022-10-25T04:46:39.565Z,18.80
2022-10-25T04:49:08.026Z,18.80
2022-10-25T04:51:36.394Z,18.80
2022-10-25T04:54:06.265Z,18.80
2022-10-25T04:56:34.948Z,18.90
2022-10-25T04:59:03.322Z,18.90
2022-10-25T05:01:31.822Z,18.90
2022-10-25T05:04:00.656Z,18.90
2022-10-25T05:06:28.951Z,18.90
2022-10-25T05:08:57.282Z,18.90
2022-10-25T05:11:27.149Z,19.00
2022-10-25T05:13:55.577Z,19.00
2022-10-25T05:16:25.774Z,19.00
2022-10-25T05:18:55.461Z,19.00
2022-10-25T05:24:01.535Z,19.10
2022-10-25T05:26:32.765Z,19.10
2022-10-25T05:29:01.357Z,19.10
2022-10-25T05:31:30.615Z,19.10
2022-10-25T05:34:00.112Z,19.10
2022-10-25T05:36:29.619Z,19.10
2022-10-25T05:38:59.264Z,19.10
2022-10-25T05:41:29.660Z,19.00
2022-10-25T05:44:01.784Z,19.00
2022-10-25T05:46:30.111Z,19.00
2022-10-25T05:48:59.470Z,19.00
2022-10-25T05:51:33.732Z,19.00
2022-10-25T05:54:04.565Z,19.00
2022-10-25T05:56:33.681Z,19.10
2022-10-25T05:59:06.948Z,19.20
2022-10-25T06:01:35.740Z,19.20
2022-10-25T06:04:04.227Z,19.20
2022-10-25T06:06:32.670Z,19.30
2022-10-25T06:09:01.974Z,19.30
2022-10-25T06:11:30.744Z,19.30
2022-10-25T06:13:59.097Z,19.40
2022-10-25T06:16:29.002Z,19.50
2022-10-25T06:18:57.470Z,19.50
2022-10-25T06:21:26.838Z,19.50
2022-10-25T06:23:55.438Z,19.50
2022-10-25T06:26:25.299Z,19.50
2022-10-25T06:28:54.736Z,19.50
2022-10-25T06:31:23.559Z,19.60
2022-10-25T06:33:53.881Z,19.70
2022-10-25T06:36:23.125Z,19.80
2022-10-25T06:38:51.918Z,19.80
2022-10-25T06:41:21.356Z,19.80
2022-10-25T06:43:50.083Z,19.80
2022-10-25T06:46:21.028Z,19.80
2022-10-25T06:48:49.866Z,19.90
2022-10-25T06:51:19.975Z,19.90
2022-10-25T06:53:48.503Z,19.90
2022-10-25T06:56:16.887Z,19.90
2022-10-25T06:58:45.335Z,19.90
2022-10-25T07:01:14.996Z,20.00
2022-10-25T07:03:43.918Z,20.00
2022-10-25T07:06:13.058Z,20.10
2022-10-25T07:08:43.274Z,20.10
2022-10-25T07:11:14.242Z,20.10
2022-10-25T07:13:42.896Z,20.20
2022-10-25T07:16:12.301Z,20.20
2022-10-25T07:18:40.716Z,20.30
2022-10-25T07:21:10.007Z,20.40
2022-10-25T07:23:42.401Z,20.40
2022-10-25T07:26:13.053Z,20.50
2022-10-25T07:28:41.817Z,20.50
2022-10-25T07:31:12.837Z,20.60
2022-10-25T07:33:41.336Z,20.70
2022-10-25T07:36:11.335Z,20.80
2022-10-25T07:38:40.170Z,20.90
2022-10-25T07:41:08.813Z,21.10
2022-10-25T07:43:38.749Z,21.30
2022-10-25T07:46:07.644Z,21.60
2022-10-25T07:48:36.301Z,21.80
2022-10-25T07:51:05.464Z,22.10
2022-10-25T07:53:33.806Z,22.30
2022-10-25T07:56:02.285Z,22.60
2022-10-25T07:58:30.739Z,22.80
2022-10-25T08:01:04.188Z,23.00
2022-10-25T08:03:32.906Z,23.20
2022-10-25T08:06:01.449Z,23.40
2022-10-25T08:08:30.196Z,23.60
2022-10-25T08:10:59.629Z,23.80
2022-10-25T08:13:28.089Z,23.90
2022-10-25T08:15:57.146Z,24.00
2022-10-25T08:18:27.193Z,24.00
2022-10-25T08:21:03.554Z,24.10
2022-10-25T08:23:32.675Z,24.10
2022-10-25T08:26:01.162Z,24.00
2022-10-25T08:28:31.249Z,24.20
2022-10-25T08:31:01.181Z,24.30
2022-10-25T08:33:31.683Z,24.20
2022-10-25T08:36:03.436Z,24.20
2022-10-25T08:38:31.837Z,24.30
2022-10-25T08:41:04.289Z,24.40
2022-10-25T08:43:40.649Z,24.40
2022-10-25T08:46:13.789Z,24.40
2022-10-25T08:48:46.300Z,24.50
2022-10-25T08:51:18.646Z,24.50
2022-10-25T08:53:49.053Z,24.50
2022-10-25T08:56:18.433Z,24.50
2022-10-25T08:58:49.097Z,24.50
2022-10-25T09:01:20.112Z,24.50
2022-10-25T09:03:49.910Z,24.60
2022-10-25T09:06:23.148Z,24.80
2022-10-25T09:08:59.498Z,24.80
2022-10-25T09:11:33.676Z,24.80
2022-10-25T09:14:06.529Z,25.00
2022-10-25T09:16:39.615Z,25.00
2022-10-25T09:19:14.038Z,25.10
2022-10-25T09:21:47.087Z,25.00
2022-10-25T09:24:20.095Z,25.10
2022-10-25T09:26:50.974Z,25.00
2022-10-25T09:29:24.558Z,25.00
2022-10-25T09:31:55.833Z,25.00
2022-10-25T09:34:26.145Z,25.00
2022-10-25T09:36:56.461Z,25.00
2022-10-25T09:39:32.124Z,25.20
2022-10-25T09:42:01.213Z,25.20
2022-10-25T09:44:37.951Z,25.10
2022-10-25T09:47:12.815Z,25.10
2022-10-25T09:49:48.115Z,25.10
2022-10-25T09:52:19.683Z,25.10
2022-10-25T09:54:50.659Z,25.00
2022-10-25T09:57:19.110Z,25.00
2022-10-25T09:59:49.906Z,25.00
2022-10-25T10:02:20.373Z,25.00
2022-10-25T10:04:50.426Z,25.00
2022-10-25T10:07:21.553Z,25.00
2022-10-25T10:09:50.310Z,25.20
2022-10-25T10:12:22.191Z,25.20
2022-10-25T10:14:54.725Z,25.20
2022-10-25T10:17:24.195Z,25.30
2022-10-25T10:20:10.533Z,25.30
2022-10-25T10:22:39.851Z,25.30
2022-10-25T10:25:16.288Z,25.20
2022-10-25T10:27:45.390Z,25.10
2022-10-25T10:30:20.693Z,25.10
2022-10-25T10:32:57.127Z,25.00
2022-10-25T10:35:28.865Z,25.00
2022-10-25T10:38:12.116Z,25.10
2022-10-25T10:40:40.512Z,25.20
2022-10-25T10:43:23.326Z,25.40
2022-10-25T10:45:52.660Z,25.40
2022-10-25T10:48:22.029Z,25.50
2022-10-25T10:50:52.726Z,25.50
2022-10-25T10:53:22.754Z,25.40
2022-10-25T10:55:52.248Z,25.40
2022-10-25T10:58:23.796Z,25.40
2022-10-25T11:00:52.919Z,25.30
2022-10-25T11:03:36.127Z,25.50
2022-10-25T11:06:06.454Z,25.40
2022-10-25T11:08:35.076Z,25.20
2022-10-25T11:11:20.135Z,25.10
2022-10-25T11:13:53.308Z,25.00
2022-10-25T11:16:40.761Z,25.00
2022-10-25T11:19:31.296Z,24.90
2022-10-25T11:22:17.692Z,25.00
2022-10-25T11:24:52.441Z,25.00
2022-10-25T11:27:26.363Z,25.20
2022-10-25T11:30:01.246Z,25.30
2022-10-25T11:32:50.353Z,25.40
2022-10-25T11:35:39.408Z,25.30
2022-10-25T11:38:11.075Z,25.40
2022-10-25T11:40:41.140Z,25.50
2022-10-25T11:43:19.072Z,25.60
2022-10-25T11:45:48.628Z,25.80
2022-10-25T11:48:22.501Z,25.80
2022-10-25T11:50:55.380Z,25.70
2022-10-25T11:53:33.539Z,25.60
2022-10-25T11:56:05.540Z,25.60
2022-10-25T11:58:39.654Z,25.50
2022-10-25T12:01:15.158Z,25.40
2022-10-25T12:03:58.485Z,25.30
2022-10-25T12:06:30.322Z,25.30
2022-10-25T12:09:04.625Z,25.20
2022-10-25T12:11:34.507Z,25.00
2022-10-25T12:14:06.176Z,25.00
2022-10-25T12:16:36.221Z,24.90
2022-10-25T12:19:09.097Z,24.90
2022-10-25T12:21:42.752Z,24.90
2022-10-25T12:24:17.786Z,24.40
2022-10-25T12:26:47.281Z,24.00
2022-10-25T12:29:18.977Z,23.80
2022-10-25T12:31:49.629Z,23.70
2022-10-25T12:34:19.985Z,23.60
2022-10-25T12:36:50.492Z,23.50
2022-10-25T12:39:22.956Z,23.40
2022-10-25T12:41:53.855Z,23.40
2022-10-25T12:44:34.685Z,23.30
2022-10-25T12:47:11.833Z,23.00
2022-10-25T12:49:49.995Z,22.80
2022-10-25T12:52:29.111Z,22.70
2022-10-25T12:55:11.132Z,22.70
2022-10-25T12:57:48.376Z,22.70
2022-10-25T13:00:18.397Z,22.70
2022-10-25T13:02:55.478Z,22.80
2022-10-25T13:05:41.573Z,22.80
2022-10-25T13:08:10.479Z,22.80
2022-10-25T13:10:42.991Z,22.90
2022-10-25T13:13:18.461Z,22.60
2022-10-25T13:15:48.911Z,22.50
2022-10-25T13:18:28.946Z,22.10
2022-10-25T13:20:57.422Z,22.20
2022-10-25T13:23:44.158Z,22.20
2022-10-25T13:26:15.591Z,22.30
2022-10-25T13:28:45.076Z,22.20
2022-10-25T13:31:28.311Z,22.10
2022-10-25T13:34:11.467Z,22.00
2022-10-25T13:36:49.768Z,22.00
2022-10-25T13:39:22.380Z,21.90
2022-10-25T13:41:53.729Z,21.90
2022-10-25T13:44:25.943Z,22.10
2022-10-25T13:46:55.663Z,21.90
2022-10-25T13:49:29.749Z,22.00
2022-10-25T13:51:59.100Z,22.00
2022-10-25T13:54:32.029Z,22.20
2022-10-25T13:57:01.937Z,22.20
2022-10-25T13:59:37.856Z,22.20
2022-10-25T14:02:16.489Z,22.20
2022-10-25T14:04:44.920Z,22.40
2022-10-25T14:07:31.622Z,22.40
2022-10-25T14:10:00.101Z,22.40
2022-10-25T14:12:30.121Z,22.30
2022-10-25T14:15:03.247Z,22.20
2022-10-25T14:17:33.415Z,22.20
2022-10-25T14:20:02.779Z,22.20
2022-10-25T14:22:35.528Z,22.10
2022-10-25T14:25:05.577Z,21.90
2022-10-25T14:27:36.358Z,21.80
2022-10-25T14:30:25.291Z,21.80
2022-10-25T14:32:55.541Z,21.90
2022-10-25T14:35:24.717Z,21.90
2022-10-25T14:37:53.248Z,21.80
2022-10-25T14:40:23.081Z,21.60
2022-10-25T14:42:54.725Z,21.60
2022-10-25T14:45:24.461Z,21.50
2022-10-25T14:47:53.128Z,21.40
2022-10-25T14:50:22.698Z,21.40
2022-10-25T14:52:51.592Z,21.40
2022-10-25T14:55:22.944Z,21.40
2022-10-25T14:57:52.787Z,21.40
2022-10-25T15:00:22.888Z,21.50
2022-10-25T15:02:53.330Z,21.30
2022-10-25T15:05:22.798Z,21.30
2022-10-25T15:07:55.626Z,21.20
2022-10-25T15:10:36.602Z,21.10
2022-10-25T15:13:07.731Z,21.10
2022-10-25T15:15:37.868Z,21.10
2022-10-25T15:18:06.420Z,21.10
2022-10-25T15:20:35.385Z,21.10
2022-10-25T15:23:05.540Z,21.10
2022-10-25T15:25:34.824Z,21.00
2022-10-25T15:28:12.123Z,21.00
2022-10-25T15:30:42.945Z,20.90
2022-10-25T15:33:12.424Z,20.80
2022-10-25T15:35:45.675Z,20.70
2022-10-25T15:38:14.137Z,20.70
2022-10-25T15:40:42.904Z,20.70
2022-10-25T15:43:12.748Z,20.70
2022-10-25T15:45:41.248Z,20.80
2022-10-25T15:48:15.413Z,20.80
2022-10-25T15:50:47.606Z,20.70
2022-10-25T15:53:16.021Z,20.70
2022-10-25T15:55:44.625Z,20.60
2022-10-25T15:58:14.401Z,20.70
2022-10-25T16:00:43.366Z,20.70
2022-10-25T16:03:23.254Z,20.70
2022-10-25T16:05:52.401Z,20.60
2022-10-25T16:08:20.798Z,20.60
2022-10-25T16:10:49.274Z,20.60
2022-10-25T16:13:21.726Z,20.60
2022-10-25T16:15:50.098Z,20.50
2022-10-25T16:18:18.460Z,20.60
2022-10-25T16:20:47.000Z,20.50
2022-10-25T16:23:17.335Z,20.60
2022-10-25T16:25:46.023Z,20.60
2022-10-25T16:28:15.334Z,20.50
2022-10-25T16:30:46.838Z,20.50
2022-10-25T16:33:15.446Z,20.50
2022-10-25T16:35:43.801Z,20.40
2022-10-25T16:38:12.260Z,20.50
2022-10-25T16:40:40.655Z,20.40
2022-10-25T16:43:10.752Z,20.40
2022-10-25T16:45:39.140Z,20.40
2022-10-25T16:48:08.925Z,20.40
2022-10-25T16:50:37.378Z,20.50
2022-10-25T16:53:08.790Z,20.50
2022-10-25T16:55:37.178Z,20.40
2022-10-25T16:58:05.701Z,20.40
2022-10-25T17:00:35.971Z,20.40
2022-10-25T17:03:04.382Z,20.40
2022-10-25T17:05:34.438Z,20.40
2022-10-25T17:08:02.813Z,20.40
2022-10-25T17:10:31.231Z,20.40
2022-10-25T17:13:04.096Z,20.50
2022-10-25T17:15:32.773Z,20.50
2022-10-25T17:18:01.174Z,20.40
2022-10-25T17:20:29.540Z,20.40
2022-10-25T17:22:59.351Z,20.40
2022-10-25T17:25:27.696Z,20.40
2022-10-25T17:27:56.075Z,20.40
2022-10-25T17:30:24.404Z,20.30
2022-10-25T17:32:52.800Z,20.30
2022-10-25T17:35:28.491Z,20.30
2022-10-25T17:37:59.285Z,20.30
2022-10-25T17:40:27.573Z,20.30
2022-10-25T17:42:55.939Z,20.30
2022-10-25T17:45:24.316Z,20.20
2022-10-25T17:47:52.688Z,20.30
2022-10-25T17:50:22.323Z,20.30
2022-10-25T17:52:51.497Z,20.20
2022-10-25T17:55:21.297Z,20.20
2022-10-25T17:57:50.256Z,20.20
2022-10-25T18:00:19.094Z,20.20
2022-10-25T18:02:50.814Z,20.20
2022-10-25T18:05:20.907Z,20.20
2022-10-25T18:07:50.262Z,20.20
2022-10-25T18:10:18.832Z,20.20
2022-10-25T18:12:48.921Z,20.10
2022-10-25T18:15:17.829Z,20.10
2022-10-25T18:17:46.822Z,20.10
2022-10-25T18:20:15.841Z,20.20
2022-10-25T18:22:44.335Z,20.20
2022-10-25T18:25:12.688Z,20.20
2022-10-25T18:27:41.096Z,20.20
2022-10-25T18:30:14.334Z,20.20
2022-10-25T18:32:42.692Z,20.10
2022-10-25T18:35:11.443Z,20.10
2022-10-25T18:37:39.899Z,20.10
2022-10-25T18:40:10.192Z,20.10
2022-10-25T18:42:38.938Z,20.10
2022-10-25T18:45:07.796Z,20.10
2022-10-25T18:47:37.633Z,20.10
2022-10-25T18:50:06.526Z,20.10
2022-10-25T18:52:34.949Z,20.10
2022-10-25T18:55:03.296Z,20.10
2022-10-25T18:57:31.895Z,20.10
2022-10-25T19:00:00.322Z,20.10
2022-10-25T19:02:28.816Z,20.10
2022-10-25T19:04:58.621Z,20.10
2022-10-25T19:07:27.060Z,20.10
2022-10-25T19:09:55.430Z,20.00
2022-10-25T19:12:23.749Z,20.00
2022-10-25T19:14:52.174Z,20.00
2022-10-25T19:17:20.631Z,20.00
2022-10-25T19:19:48.995Z,20.00
2022-10-25T19:22:18.746Z,20.00
2022-10-25T19:24:47.872Z,20.00
2022-10-25T19:27:16.635Z,20.00
2022-10-25T19:29:45.005Z,19.90
2022-10-25T19:32:13.345Z,19.90
2022-10-25T19:34:41.750Z,19.90
2022-10-25T19:37:11.169Z,19.80
2022-10-25T19:39:43.634Z,19.70
2022-10-25T19:42:12.594Z,19.70
2022-10-25T19:44:41.001Z,19.70
2022-10-25T19:47:09.503Z,19.70
2022-10-25T19:49:37.925Z,19.60
2022-10-25T19:52:06.296Z,19.60
2022-10-25T19:54:34.673Z,19.60
2022-10-25T19:57:06.299Z,19.60
2022-10-25T19:59:34.700Z,19.50
2022-10-25T20:02:03.250Z,19.60
2022-10-25T20:04:31.780Z,19.50
2022-10-25T20:07:00.212Z,19.50
2022-10-25T20:09:28.598Z,19.50
2022-10-25T20:11:57.113Z,19.50
2022-10-25T20:14:26.917Z,19.50
2022-10-25T20:16:55.279Z,19.40
2022-10-25T20:19:23.660Z,19.40
2022-10-25T20:21:52.049Z,19.50
2022-10-25T20:24:20.501Z,19.50
2022-10-25T20:26:49.857Z,19.40
2022-10-25T20:29:21.277Z,19.50
2022-10-25T20:31:51.953Z,19.50
2022-10-25T20:34:20.901Z,19.50
2022-10-25T20:36:49.536Z,19.40
2022-10-25T20:39:18.115Z,19.40
2022-10-25T20:41:46.479Z,19.30
2022-10-25T20:44:15.186Z,19.30
2022-10-25T20:46:43.528Z,19.30
2022-10-25T20:49:13.337Z,19.30
2022-10-25T20:51:41.603Z,19.20
2022-10-25T20:54:10.362Z,19.20
2022-10-25T20:56:39.630Z,19.20
2022-10-25T20:59:08.417Z,19.20
2022-10-25T21:01:37.121Z,19.20
2022-10-25T21:04:05.906Z,19.20
2022-10-25T21:06:35.680Z,19.10
2022-10-25T21:09:04.129Z,19.10
2022-10-25T21:11:32.692Z,19.10
2022-10-25T21:14:01.065Z,19.10
2022-10-25T21:16:29.481Z,19.10
2022-10-25T21:18:57.883Z,19.20
2022-10-25T21:21:26.239Z,19.20
2022-10-25T21:23:57.664Z,19.30
2022-10-25T21:26:26.050Z,19.30
2022-10-25T21:28:54.402Z,19.30
2022-10-25T21:31:22.830Z,19.30
2022-10-25T21:33:53.198Z,19.30
2022-10-25T21:36:22.506Z,19.30
2022-10-25T21:38:50.900Z,19.20
2022-10-25T21:41:26.646Z,19.20
2022-10-25T21:43:55.465Z,19.20
2022-10-25T21:46:24.510Z,19.20
2022-10-25T21:48:52.882Z,19.20
2022-10-25T21:51:21.653Z,19.20
2022-10-25T21:53:50.021Z,19.20
2022-10-25T21:56:19.205Z,19.20
2022-10-25T21:58:49.896Z,19.10
2022-10-25T22:01:19.408Z,19.10
2022-10-25T22:03:48.020Z,19.10
2022-10-25T22:06:17.632Z,19.10
2022-10-25T22:08:45.995Z,19.10
2022-10-25T22:11:15.615Z,19.00
2022-10-25T22:13:44.343Z,19.00
2022-10-25T22:16:14.933Z,19.00
2022-10-25T22:18:43.424Z,19.00
2022-10-25T22:21:13.338Z,19.00
2022-10-25T22:23:41.725Z,19.00
2022-10-25T22:26:11.479Z,18.90
2022-10-25T22:28:41.246Z,18.90
2022-10-25T22:31:11.181Z,18.90
2022-10-25T22:33:41.472Z,18.90
2022-10-25T22:36:11.028Z,18.90
2022-10-25T22:38:39.600Z,18.90
2022-10-25T22:41:08.851Z,18.90
2022-10-25T22:43:37.618Z,18.90
2022-10-25T22:46:06.928Z,18.90
2022-10-25T22:48:35.848Z,18.90
2022-10-25T22:51:05.917Z,19.00
2022-10-25T22:53:35.136Z,19.00
2022-10-25T22:56:04.844Z,19.00
2022-10-25T22:58:33.830Z,18.90
2022-10-25T23:03:37.216Z,18.80
2022-10-25T23:06:07.877Z,18.90
2022-10-25T23:08:36.289Z,18.90
2022-10-25T23:11:05.445Z,18.90
2022-10-25T23:13:34.630Z,18.90
2022-10-25T23:16:03.536Z,18.90
2022-10-25T23:18:31.883Z,18.90
2022-10-25T23:21:01.148Z,18.80
2022-10-25T23:23:34.468Z,18.70
2022-10-25T23:26:02.930Z,18.60
2022-10-25T23:28:32.021Z,18.60
2022-10-25T23:31:04.280Z,18.60
2022-10-25T23:33:32.761Z,18.60
2022-10-25T23:36:04.548Z,18.60
2022-10-25T23:38:34.256Z,18.60
2022-10-25T23:41:02.821Z,18.60
2022-10-25T23:43:31.465Z,18.70
2022-10-25T23:46:00.002Z,18.80
2022-10-25T23:48:28.615Z,18.80
2022-10-25T23:50:58.038Z,18.70
2022-10-25T23:53:26.549Z,18.70
2022-10-25T23:55:56.662Z,18.70
2022-10-25T23:58:25.193Z,18.70
